Time;durP1;ratioP1;P1;durP2;ratioP2;P2;SDS_P1;SDS_P2;PMS_P1;PMS_P2;Temp;Humidity;BMP_temperature;BMP_pressure;BME280_temperature;BME280_humidity;BME280_pressure;Samples;Min_cycle;Max_cycle;Signal;HPM_P1;HPM_P2
2023/07/25 07:39:58;;;;;;;8.52;4.57;;;;;;;27.19;58.77;99216.56;5604783;31;158421;-59
2023/07/25 07:43:02;;;;;;;11.55;4.80;;;;;;;27.19;58.77;99216.56;5591109;31;33321;-59
2023/07/25 07:46:04;;;;;;;9.30;4.57;;;;;;;26.76;60.10;99224.75;5583740;31;33568;-59
2023/07/25 07:49:06;;;;;;;14.55;5.35;;;;;;;26.80;59.36;99231.72;5582867;31;34290;-59
2023/07/25 07:52:09;;;;;;;10.50;5.18;;;;;;;26.78;59.92;99244.34;5583717;31;33553;-59
2023/07/25 07:55:24;;;;;;;9.88;4.72;;;;;;;26.81;59.98;99235.25;5583979;32;33363;-60
2023/07/25 07:58:26;;;;;;;10.05;4.65;;;;;;;26.83;62.13;99241.91;5581210;31;33819;-59
2023/07/25 08:01:29;;;;;;;10.15;4.80;;;;;;;26.87;60.98;99228.09;5583522;31;33502;-60
2023/07/25 08:04:32;;;;;;;20.98;7.03;;;;;;;26.81;61.58;99227.78;5582904;32;34175;-60
2023/07/25 08:07:35;;;;;;;207.27;29.17;;;;;;;26.63;62.35;99239.06;5583211;32;33613;-59
2023/07/25 08:10:38;;;;;;;64.43;13.60;;;;;;;26.64;62.87;99232.38;5582346;32;33673;-59
2023/07/25 08:13:40;;;;;;;77.93;15.30;;;;;;;26.86;63.70;99238.31;5580854;32;33598;-60
2023/07/25 08:16:42;;;;;;;530.30;71.28;;;;;;;27.22;61.70;99231.44;5563922;32;33670;-59
2023/07/25 08:19:45;;;;;;;323.35;37.15;;;;;;;29.13;54.10;99238.72;5563765;32;33948;-61
2023/07/25 08:22:47;;;;;;;50.00;9.20;;;;;;;28.98;56.98;99218.22;5563688;32;34392;-60
2023/07/25 08:25:50;;;;;;;19.92;4.82;;;;;;;28.45;55.90;99217.53;5563660;32;33846;-59
2023/07/25 08:28:52;;;;;;;120.85;10.27;;;;;;;27.87;56.68;99212.47;5563756;32;33600;-59
2023/07/25 08:31:55;;;;;;;33.88;5.62;;;;;;;27.45;63.87;99205.84;5563730;32;33798;-61
2023/07/25 08:34:57;;;;;;;74.32;7.85;;;;;;;27.15;64.96;99197.38;5563585;32;33869;-59
2023/07/25 08:37:59;;;;;;;23.10;5.12;;;;;;;26.94;66.31;99194.97;5563510;32;33757;-59
2023/07/25 08:41:24;;;;;;;31.50;6.20;;;;;;;26.82;66.71;99195.56;5564946;32;33646;-60
2023/07/25 08:44:27;;;;;;;14.35;5.40;;;;;;;26.64;67.05;99196.62;5582872;32;33806;-59
2023/07/25 08:47:33;;;;;;;12.07;4.43;;;;;;;26.41;71.17;99202.84;5583364;31;34363;-59
2023/07/25 08:50:37;;;;;;;1086.57;145.70;;;;;;;26.24;72.68;99212.91;5572207;32;34370;-62
2023/07/25 08:53:47;;;;;;;18.02;6.25;;;;;;;26.14;74.57;99218.56;5567686;32;33819;-61
2023/07/25 08:56:50;;;;;;;97.40;12.52;;;;;;;26.15;76.81;99212.66;5569232;32;33729;-61
2023/07/25 08:59:53;;;;;;;90.47;8.80;;;;;;;25.92;78.77;99221.59;5569748;32;33653;-61
2023/07/25 09:02:55;;;;;;;47.33;9.50;;;;;;;25.72;77.70;99265.34;5569307;32;33535;-60
2023/07/25 09:06:00;;;;;;;18.33;5.28;;;;;;;25.70;81.08;99247.75;5566259;32;33579;-61
2023/07/25 09:09:04;;;;;;;8.00;4.45;;;;;;;25.59;80.66;99260.78;5550280;32;34336;-61
2023/07/25 09:12:08;;;;;;;15.18;5.07;;;;;;;25.61;79.17;99313.31;5553827;32;33605;-61
2023/07/25 09:15:10;;;;;;;13.90;4.80;;;;;;;25.51;78.50;99361.63;5569056;31;34351;-61
2023/07/25 09:18:12;;;;;;;11.25;5.15;;;;;;;25.22;79.29;99482.53;5569241;32;33685;-61
2023/07/25 09:21:15;;;;;;;61.72;54.88;;;;;;;25.10;81.71;99570.75;5569474;32;34336;-61
2023/07/25 09:24:18;;;;;;;93.97;10.80;;;;;;;24.92;84.95;99570.78;5567514;32;33591;-62
2023/07/25 09:27:20;;;;;;;26.58;16.35;;;;;;;24.89;87.70;99518.72;5569702;32;33216;-61
2023/07/25 09:30:27;;;;;;;12.90;8.45;;;;;;;24.56;87.02;99518.03;5569462;32;34412;-61
2023/07/25 09:33:30;;;;;;;16.37;10.13;;;;;;;24.39;88.69;99505.91;5569599;32;33589;-62
2023/07/25 09:36:32;;;;;;;29.65;16.55;;;;;;;24.33;89.13;99497.31;5569552;32;34655;-62
2023/07/25 09:39:35;;;;;;;11.12;5.78;;;;;;;24.15;88.42;99488.38;5568923;32;33705;-61
2023/07/25 09:42:42;;;;;;;12.35;5.78;;;;;;;24.10;89.41;99478.56;5568197;32;33636;-62
2023/07/25 09:45:44;;;;;;;12.35;5.80;;;;;;;24.00;89.28;99471.16;5569223;32;33568;-61
2023/07/25 09:48:51;;;;;;;12.27;5.82;;;;;;;24.10;90.67;99480.53;5569809;32;34271;-61
2023/07/25 09:52:03;;;;;;;11.43;6.10;;;;;;;24.17;89.05;99475.03;5569002;32;34360;-61
2023/07/25 09:55:06;;;;;;;9.82;5.25;;;;;;;24.03;87.83;99448.47;5569670;32;33739;-61
2023/07/25 09:58:09;;;;;;;8.63;5.25;;;;;;;23.97;89.19;99398.03;5569107;32;33782;-61
2023/07/25 10:01:12;;;;;;;6.53;4.28;;;;;;;23.92;90.12;99380.06;5568592;32;34401;-60
2023/07/25 10:04:16;;;;;;;6.12;4.28;;;;;;;23.97;83.27;99350.72;5569283;32;34253;-60
2023/07/25 10:07:23;;;;;;;7.57;4.95;;;;;;;23.89;83.93;99361.69;5569143;32;34329;-60
2023/07/25 10:10:26;;;;;;;8.40;4.60;;;;;;;23.83;84.90;99371.47;5569313;32;34024;-60
2023/07/25 10:13:32;;;;;;;7.18;4.18;;;;;;;23.71;86.42;99371.91;5569133;31;33836;-59
2023/07/25 10:16:36;;;;;;;8.55;4.35;;;;;;;23.70;86.33;99384.00;5569296;32;33565;-60
2023/07/25 10:19:46;;;;;;;7.90;4.70;;;;;;;23.62;87.59;99415.25;5569258;32;33574;-60
2023/07/25 10:22:50;;;;;;;9.63;5.37;;;;;;;23.43;88.02;99419.94;5569498;32;33621;-60
2023/07/25 10:25:52;;;;;;;6.37;4.57;;;;;;;23.42;92.57;99425.81;5569296;32;33622;-60
2023/07/25 10:28:58;;;;;;;9.35;4.62;;;;;;;23.57;87.78;99430.09;5569337;32;33589;-60
2023/07/25 10:32:00;;;;;;;10.45;4.90;;;;;;;23.52;88.80;99438.72;5569091;32;33583;-60
2023/07/25 10:35:04;;;;;;;10.27;4.82;;;;;;;23.73;89.16;99448.91;5569221;32;34301;-59
2023/07/25 10:38:13;;;;;;;8.30;5.28;;;;;;;23.71;87.59;99417.62;5568766;32;33591;-60
2023/07/25 10:41:24;;;;;;;6.72;4.95;;;;;;;23.85;88.53;99396.50;5569361;32;33569;-60
2023/07/25 10:44:36;;;;;;;9.82;4.47;;;;;;;23.77;82.14;99384.00;5569068;32;33273;-60
2023/07/25 10:47:45;;;;;;;11.05;5.57;;;;;;;23.82;81.62;99366.41;5569185;32;33509;-60
2023/07/25 10:50:48;;;;;;;6.97;4.70;;;;;;;23.85;85.16;99369.13;5569178;32;33634;-60
2023/07/25 10:54:10;;;;;;;9.15;4.90;;;;;;;23.86;81.79;99348.03;5568889;32;33553;-60
2023/07/25 10:57:14;;;;;;;8.77;5.20;;;;;;;23.82;85.82;99339.81;5569077;32;33662;-60
2023/07/25 11:00:17;;;;;;;10.50;5.07;;;;;;;23.86;85.23;99346.06;5568192;32;33537;-60
2023/07/25 11:03:27;;;;;;;6.97;5.03;;;;;;;23.92;84.79;99330.03;5568292;32;33605;-60
2023/07/25 11:06:35;;;;;;;9.32;4.93;;;;;;;24.03;83.19;99384.72;5567795;32;33665;-60
2023/07/25 11:09:43;;;;;;;8.35;4.93;;;;;;;24.11;84.49;99356.16;5568547;32;33661;-60
2023/07/25 11:12:50;;;;;;;7.60;4.32;;;;;;;24.20;84.26;99353.00;5567357;32;34441;-60
2023/07/25 11:15:55;;;;;;;9.02;4.68;;;;;;;24.21;84.66;99330.69;5567488;31;33621;-59
2023/07/25 11:18:58;;;;;;;9.40;4.72;;;;;;;24.26;82.31;99291.94;5568820;32;34364;-59
2023/07/25 11:22:07;;;;;;;7.15;4.07;;;;;;;24.19;81.86;99272.81;5568421;32;33819;-60
2023/07/25 11:25:10;;;;;;;15.40;5.18;;;;;;;24.12;79.13;99261.91;5568725;32;33591;-60
2023/07/25 11:28:13;;;;;;;7.50;4.60;;;;;;;24.15;81.04;99255.63;5568411;32;34471;-59
2023/07/25 11:31:22;;;;;;;7.50;4.50;;;;;;;24.17;78.94;99257.94;5568377;32;33587;-60
2023/07/25 11:34:24;;;;;;;9.40;5.18;;;;;;;24.26;82.15;99239.91;5568286;32;33993;-59
2023/07/25 11:37:27;;;;;;;8.48;4.78;;;;;;;24.41;81.86;99248.84;5568297;32;34242;-60
2023/07/25 11:40:29;;;;;;;8.85;5.28;;;;;;;24.41;78.10;99232.44;5568005;32;34330;-59
2023/07/25 11:43:32;;;;;;;9.38;5.03;;;;;;;24.40;76.82;99239.03;5567851;32;33567;-59
2023/07/25 11:46:36;;;;;;;7.00;5.37;;;;;;;24.38;76.30;99224.97;5567151;32;33729;-59
2023/07/25 11:49:39;;;;;;;14.32;6.65;;;;;;;24.36;79.11;99222.63;5567784;32;33564;-60
2023/07/25 11:52:57;;;;;;;7.85;4.65;;;;;;;24.27;82.20;99214.09;5567833;32;34195;-60
2023/07/25 11:56:00;;;;;;;9.05;4.85;;;;;;;24.30;79.22;99232.44;5566898;32;33557;-59
2023/07/25 11:59:03;;;;;;;9.65;5.18;;;;;;;24.31;77.73;99228.53;5566949;32;33678;-59
2023/07/25 12:02:06;;;;;;;8.60;5.15;;;;;;;24.46;75.67;99226.50;5567179;32;33772;-60
2023/07/25 12:05:24;;;;;;;8.88;5.20;;;;;;;24.53;74.77;99233.91;5567301;32;34042;-59
2023/07/25 12:08:34;;;;;;;8.60;6.00;;;;;;;24.55;75.77;99246.00;5566835;32;33706;-59
2023/07/25 12:11:41;;;;;;;9.15;5.78;;;;;;;24.54;74.04;99260.91;5566740;32;33693;-60
2023/07/25 12:14:57;;;;;;;9.02;5.57;;;;;;;24.58;76.64;99278.09;5565857;32;33695;-60
2023/07/25 12:18:00;;;;;;;9.25;5.78;;;;;;;24.60;77.42;99275.75;5567032;32;33550;-59
2023/07/25 12:21:04;;;;;;;8.10;5.25;;;;;;;24.57;82.30;99243.66;5567162;32;33553;-60
2023/07/25 12:24:11;;;;;;;7.50;5.60;;;;;;;24.61;78.23;99271.81;5567313;32;33807;-59
2023/07/25 12:27:18;;;;;;;11.48;5.60;;;;;;;24.53;80.53;99264.81;5569637;32;33852;-60
2023/07/25 12:30:20;;;;;;;8.27;5.60;;;;;;;24.50;83.34;99259.34;5569435;32;33239;-60
2023/07/25 12:33:23;;;;;;;10.55;5.82;;;;;;;24.49;83.40;99275.00;5569797;32;34423;-59
2023/07/25 12:36:25;;;;;;;11.02;6.10;;;;;;;24.41;82.73;99264.50;5569412;32;33692;-60
2023/07/25 12:39:29;;;;;;;8.75;5.97;;;;;;;24.35;83.95;99286.81;5569539;32;33814;-60
2023/07/25 12:42:31;;;;;;;7.62;5.85;;;;;;;24.31;85.10;99275.09;5569301;32;34407;-60
2023/07/25 12:45:33;;;;;;;12.48;6.60;;;;;;;24.34;84.47;99279.00;5569562;32;34253;-60
2023/07/25 12:48:36;;;;;;;8.38;6.07;;;;;;;24.30;86.25;99262.56;5569532;32;33666;-60
2023/07/25 12:51:38;;;;;;;10.60;6.72;;;;;;;24.32;86.94;99238.31;5569493;32;34400;-59
2023/07/25 12:54:41;;;;;;;10.32;6.55;;;;;;;24.48;86.73;99193.25;5569350;32;33995;-60
2023/07/25 12:57:43;;;;;;;11.05;6.80;;;;;;;24.57;84.60;99138.78;5549793;32;34281;-60
2023/07/25 13:00:45;;;;;;;12.10;6.40;;;;;;;24.48;85.85;99131.00;5550030;32;33288;-60
2023/07/25 13:03:47;;;;;;;13.98;6.72;;;;;;;24.33;87.51;99116.59;5549761;32;34391;-60
2023/07/25 13:06:50;;;;;;;11.43;6.78;;;;;;;24.27;85.80;99096.34;5549870;32;34430;-59
2023/07/25 13:09:56;;;;;;;11.15;6.32;;;;;;;24.29;86.93;99110.38;5549688;32;33471;-59
2023/07/25 13:12:58;;;;;;;9.88;5.45;;;;;;;24.46;86.71;99095.00;5549910;32;33452;-60
2023/07/25 13:16:01;;;;;;;9.60;5.70;;;;;;;24.59;85.32;99103.50;5548997;32;33699;-60
2023/07/25 13:19:03;;;;;;;9.88;5.50;;;;;;;24.57;86.38;99139.56;5548861;32;33686;-59
2023/07/25 13:22:06;;;;;;;15.88;12.20;;;;;;;24.69;86.15;99167.63;5546083;32;34400;-60
2023/07/25 13:25:08;;;;;;;10.93;6.10;;;;;;;24.64;85.04;99170.81;5546361;32;34343;-60
2023/07/25 13:28:11;;;;;;;10.05;6.05;;;;;;;24.82;83.62;99158.50;5548691;32;33747;-59
2023/07/25 13:31:14;;;;;;;14.52;5.85;;;;;;;24.80;80.72;99174.59;5549665;32;33585;-61
2023/07/25 13:34:16;;;;;;;9.57;5.40;;;;;;;24.80;84.29;99190.22;5549515;32;33629;-60
2023/07/25 13:37:18;;;;;;;10.35;5.03;;;;;;;24.81;83.49;99194.53;5549570;32;34507;-60
2023/07/25 13:40:21;;;;;;;10.55;4.28;;;;;;;24.94;83.98;99217.53;5549704;32;33838;-61
